Time;durP1;ratioP1;P1;durP2;ratioP2;P2;SDS_P1;SDS_P2;PMS_P1;PMS_P2;Temp;Humidity;BMP_temperature;BMP_pressure;BME280_temperature;BME280_humidity;BME280_pressure;Samples;Min_cycle;Max_cycle;Signal;HPM_P1;HPM_P2
2024/01/21 00:00:13;;;;;;;11.03;8.17;;;-3.00;48.10;;;;;;5078858;28;20229;-64
2024/01/21 00:02:41;;;;;;;7.97;7.17;;;-3.10;48.50;;;;;;5078094;28;20200;-63
2024/01/21 00:05:07;;;;;;;7.17;6.50;;;-3.10;48.10;;;;;;5071116;28;20256;-62
2024/01/21 00:07:34;;;;;;;8.60;7.13;;;-3.20;48.50;;;;;;5081139;28;20247;-62
2024/01/21 00:10:00;;;;;;;7.90;6.20;;;-3.10;48.30;;;;;;5072529;28;20245;-63
2024/01/21 00:12:27;;;;;;;7.50;6.73;;;-3.00;48.10;;;;;;5085554;28;20261;-61
2024/01/21 00:14:53;;;;;;;9.93;6.87;;;-2.80;48.10;;;;;;5061909;28;20206;-63
2024/01/21 00:17:20;;;;;;;8.77;6.20;;;-3.00;48.10;;;;;;5084236;28;20204;-64
2024/01/21 00:19:46;;;;;;;8.03;7.00;;;-3.00;48.10;;;;;;5066467;28;20464;-61
2024/01/21 00:22:13;;;;;;;7.63;6.80;;;-3.30;49.20;;;;;;5081092;28;20209;-64
2024/01/21 00:24:39;;;;;;;7.83;6.77;;;-3.40;49.50;;;;;;5079304;28;20494;-64
2024/01/21 00:27:06;;;;;;;7.30;6.23;;;-3.20;48.80;;;;;;5084392;28;20228;-64
2024/01/21 00:29:32;;;;;;;10.80;6.83;;;-3.10;48.50;;;;;;5080798;28;20236;-64
2024/01/21 00:31:59;;;;;;;8.20;6.77;;;-3.20;48.70;;;;;;5072586;28;20248;-64
2024/01/21 00:34:25;;;;;;;10.87;8.10;;;-3.00;48.10;;;;;;5078507;28;20209;-63
2024/01/21 00:36:52;;;;;;;7.27;6.57;;;-3.00;48.10;;;;;;5058635;28;20256;-62
2024/01/21 00:39:18;;;;;;;5.97;5.30;;;-2.80;47.20;;;;;;5076339;28;20261;-65
2024/01/21 00:41:45;;;;;;;9.10;5.47;;;-2.90;46.70;;;;;;5069652;28;20678;-64
2024/01/21 00:44:11;;;;;;;5.47;4.97;;;-2.90;46.50;;;;;;5080958;28;20247;-64
2024/01/21 00:46:38;;;;;;;6.03;5.43;;;-2.80;45.70;;;;;;5074131;28;20252;-62
2024/01/21 00:49:04;;;;;;;6.10;5.50;;;-2.60;45.40;;;;;;5082814;28;20606;-61
2024/01/21 00:51:31;;;;;;;6.30;5.70;;;-2.90;46.10;;;;;;5084258;28;20615;-66
2024/01/21 00:53:57;;;;;;;6.90;6.20;;;-2.80;46.20;;;;;;5073193;28;20217;-63
2024/01/21 00:56:24;;;;;;;7.27;5.80;;;-3.00;46.00;;;;;;5075005;28;20269;-63
2024/01/21 00:58:50;;;;;;;5.90;5.30;;;-3.10;46.10;;;;;;5076643;28;20216;-64
2024/01/21 01:01:17;;;;;;;6.03;5.07;;;-2.80;45.70;;;;;;5075617;28;20232;-60
2024/01/21 01:03:44;;;;;;;8.03;5.57;;;-2.80;45.80;;;;;;5067719;28;20273;-64
2024/01/21 01:06:10;;;;;;;6.67;6.00;;;-2.60;45.00;;;;;;5080918;28;20220;-64
2024/01/21 01:08:37;;;;;;;6.23;5.43;;;-2.60;44.40;;;;;;5083142;28;20715;-62
2024/01/21 01:11:04;;;;;;;7.27;6.10;;;-2.60;44.90;;;;;;5081125;28;20712;-64
2024/01/21 01:13:30;;;;;;;5.67;5.00;;;-2.60;44.70;;;;;;5079741;28;20205;-64
2024/01/21 01:15:57;;;;;;;5.30;4.90;;;-2.60;44.50;;;;;;5072572;28;20222;-61
2024/01/21 01:18:23;;;;;;;6.03;5.40;;;-2.60;44.80;;;;;;5071237;28;20679;-62
2024/01/21 01:20:51;;;;;;;8.93;5.23;;;-2.60;44.50;;;;;;5079974;28;20221;-64
2024/01/21 01:23:17;;;;;;;7.57;5.10;;;-2.50;44.20;;;;;;5083504;28;20667;-64
2024/01/21 01:25:44;;;;;;;6.00;5.43;;;-2.60;44.60;;;;;;5079504;28;20234;-64
2024/01/21 01:28:10;;;;;;;6.73;5.90;;;-2.60;45.00;;;;;;5067521;28;20236;-65
2024/01/21 01:30:37;;;;;;;5.97;5.17;;;-2.70;44.70;;;;;;5073108;28;20228;-63
2024/01/21 01:33:03;;;;;;;5.03;4.60;;;-2.70;45.00;;;;;;5079583;28;20601;-62
2024/01/21 01:35:30;;;;;;;5.87;5.27;;;-2.90;45.20;;;;;;5065553;28;20224;-63
2024/01/21 01:37:56;;;;;;;5.60;5.10;;;-3.00;45.30;;;;;;5073936;28;20233;-61
2024/01/21 01:40:23;;;;;;;5.60;5.03;;;-3.00;45.20;;;;;;5077925;28;20225;-65
2024/01/21 01:42:49;;;;;;;6.17;5.50;;;-2.90;45.70;;;;;;5079042;28;20244;-64
2024/01/21 01:45:16;;;;;;;5.43;5.00;;;-2.70;44.90;;;;;;5071758;28;20239;-62
2024/01/21 01:47:42;;;;;;;6.10;5.03;;;-2.70;44.80;;;;;;5073504;28;20232;-62
2024/01/21 01:50:09;;;;;;;5.67;5.10;;;-2.70;44.60;;;;;;5068694;28;20232;-64
2024/01/21 01:52:35;;;;;;;8.10;7.30;;;-2.70;44.90;;;;;;5079284;28;20669;-65
2024/01/21 01:55:02;;;;;;;11.73;8.80;;;-2.80;45.40;;;;;;5070214;28;20248;-63
2024/01/21 01:57:28;;;;;;;8.27;6.83;;;-2.90;45.50;;;;;;5074997;28;20560;-61
2024/01/21 01:59:55;;;;;;;5.90;5.37;;;-3.10;45.70;;;;;;5078116;28;20258;-61
2024/01/21 02:02:21;;;;;;;8.93;5.77;;;-3.10;46.00;;;;;;5077496;28;20247;-60
2024/01/21 02:04:48;;;;;;;6.20;5.60;;;-2.70;45.30;;;;;;5066431;28;20715;-65
2024/01/21 02:07:14;;;;;;;6.50;5.43;;;-2.80;45.00;;;;;;5081655;28;20287;-63
2024/01/21 02:09:41;;;;;;;6.90;6.20;;;-2.90;45.30;;;;;;5072853;28;20661;-61
2024/01/21 02:12:07;;;;;;;5.63;5.13;;;-2.90;44.80;;;;;;5058443;28;20664;-64
2024/01/21 02:14:34;;;;;;;7.13;5.50;;;-3.10;45.10;;;;;;5079496;28;20257;-63
2024/01/21 02:17:00;;;;;;;5.97;5.37;;;-2.90;45.20;;;;;;5073930;28;20430;-63
2024/01/21 02:19:27;;;;;;;6.03;5.43;;;-3.10;45.40;;;;;;5069089;28;20264;-66
2024/01/21 02:21:53;;;;;;;8.03;5.63;;;-3.20;45.90;;;;;;5080034;28;20291;-64
2024/01/21 02:24:20;;;;;;;6.53;5.63;;;-3.40;46.40;;;;;;5065257;28;20210;-64
2024/01/21 02:26:47;;;;;;;5.93;5.43;;;-3.20;46.10;;;;;;5082756;28;20220;-62
2024/01/21 02:29:14;;;;;;;6.80;6.17;;;-3.20;46.00;;;;;;5055380;28;20300;-64
2024/01/21 02:31:41;;;;;;;6.60;6.00;;;-3.20;46.00;;;;;;5067854;28;20238;-62
2024/01/21 02:34:07;;;;;;;5.80;5.30;;;-3.20;46.10;;;;;;5081934;28;20259;-60
2024/01/21 02:36:34;;;;;;;8.10;5.90;;;-3.10;46.00;;;;;;5081875;28;20268;-64
2024/01/21 02:39:00;;;;;;;6.93;5.70;;;-3.20;46.40;;;;;;5072438;28;20247;-62
2024/01/21 02:41:27;;;;;;;6.10;5.50;;;-3.20;46.10;;;;;;5085208;28;20663;-63
2024/01/21 02:43:53;;;;;;;6.83;5.47;;;-3.10;45.70;;;;;;5083511;28;20301;-62
2024/01/21 02:46:20;;;;;;;6.60;6.00;;;-3.20;46.20;;;;;;5075976;28;21814;-62
2024/01/21 02:48:46;;;;;;;6.20;5.60;;;-3.20;46.20;;;;;;5078214;28;20241;-65
2024/01/21 02:51:12;;;;;;;6.73;5.97;;;-3.40;46.40;;;;;;5075270;28;20240;-64
2024/01/21 02:53:39;;;;;;;8.33;5.90;;;-3.30;46.80;;;;;;5078264;28;20277;-67
2024/01/21 02:56:04;;;;;;;6.43;5.83;;;-3.30;46.60;;;;;;5085360;28;20233;-64
2024/01/21 02:58:31;;;;;;;7.63;6.83;;;-3.30;46.60;;;;;;5073563;28;20208;-64
2024/01/21 03:00:57;;;;;;;7.23;6.20;;;-3.40;46.40;;;;;;5084196;28;20644;-64
2024/01/21 03:03:24;;;;;;;7.87;6.33;;;-3.50;46.40;;;;;;5083244;28;20232;-64
2024/01/21 03:05:50;;;;;;;6.47;5.87;;;-3.50;46.70;;;;;;5074975;28;20279;-64
2024/01/21 03:08:17;;;;;;;6.57;5.87;;;-3.50;46.50;;;;;;5080752;28;20229;-66
2024/01/21 03:10:43;;;;;;;5.90;5.47;;;-3.50;46.80;;;;;;5074518;28;20202;-64
2024/01/21 03:13:10;;;;;;;7.37;5.43;;;-3.50;46.40;;;;;;5082109;28;20274;-63
2024/01/21 03:15:36;;;;;;;6.00;5.37;;;-3.50;46.50;;;;;;5081050;28;20274;-64
2024/01/21 03:18:03;;;;;;;6.63;6.03;;;-3.40;46.50;;;;;;5058040;28;20209;-62
2024/01/21 03:20:29;;;;;;;6.60;4.57;;;-3.50;46.40;;;;;;5072282;28;20252;-64
2024/01/21 03:22:56;;;;;;;6.80;5.60;;;-3.40;45.80;;;;;;5068569;28;20212;-63
2024/01/21 03:25:22;;;;;;;5.70;5.27;;;-3.70;46.40;;;;;;5085956;28;20279;-64
2024/01/21 03:27:49;;;;;;;5.37;4.77;;;-3.50;46.20;;;;;;5075442;28;20289;-64
2024/01/21 03:30:15;;;;;;;5.70;5.10;;;-3.40;45.80;;;;;;5078210;28;20519;-62
2024/01/21 03:32:42;;;;;;;5.60;5.13;;;-3.50;45.60;;;;;;5071492;28;20200;-65
2024/01/21 03:35:09;;;;;;;6.63;5.13;;;-3.50;46.40;;;;;;5085818;28;20236;-65
2024/01/21 03:37:35;;;;;;;5.80;5.10;;;-3.40;45.80;;;;;;5081445;28;20205;-64
2024/01/21 03:40:02;;;;;;;5.40;4.90;;;-3.50;45.80;;;;;;5079854;28;20265;-61
2024/01/21 03:42:28;;;;;;;5.37;4.87;;;-3.40;45.70;;;;;;5087390;28;20209;-65
2024/01/21 03:44:55;;;;;;;11.07;4.77;;;-3.40;45.70;;;;;;5085961;28;20208;-63
2024/01/21 03:47:22;;;;;;;6.00;5.40;;;-3.40;45.70;;;;;;5081732;28;20211;-64
2024/01/21 03:49:48;;;;;;;5.20;4.80;;;-3.30;46.10;;;;;;5084915;28;20202;-63
2024/01/21 03:52:14;;;;;;;5.40;4.90;;;-3.50;45.80;;;;;;5085810;28;20777;-64
2024/01/21 03:54:41;;;;;;;5.93;5.33;;;-3.70;46.50;;;;;;5077665;28;20240;-65
2024/01/21 03:57:07;;;;;;;6.50;5.50;;;-3.60;46.10;;;;;;5082672;28;20260;-64
2024/01/21 03:59:34;;;;;;;6.40;5.00;;;-3.60;46.70;;;;;;5081625;28;20233;-62
2024/01/21 04:02:01;;;;;;;8.13;5.20;;;-3.60;46.60;;;;;;5082788;28;20326;-64
2024/01/21 04:04:27;;;;;;;5.47;4.97;;;-3.60;46.40;;;;;;5081587;28;20236;-66
2024/01/21 04:06:53;;;;;;;6.17;5.07;;;-3.70;45.80;;;;;;5080013;28;20618;-64
2024/01/21 04:09:23;;;;;;;6.13;4.93;;;-3.80;46.50;;;;;;5078803;28;20232;-64
2024/01/21 04:11:49;;;;;;;5.57;5.07;;;-3.80;46.50;;;;;;5075807;28;20244;-63
2024/01/21 04:14:16;;;;;;;7.13;5.47;;;-3.90;46.50;;;;;;5084944;28;20254;-64
2024/01/21 04:16:42;;;;;;;4.97;4.60;;;-3.70;46.50;;;;;;5084981;28;20229;-64
2024/01/21 04:19:09;;;;;;;7.57;5.60;;;-3.70;46.10;;;;;;5074297;28;20623;-63
2024/01/21 04:21:35;;;;;;;5.73;5.23;;;-3.80;46.10;;;;;;5084862;28;20225;-61
2024/01/21 04:24:02;;;;;;;6.20;5.60;;;-3.80;46.60;;;;;;5081297;28;20512;-64
2024/01/21 04:26:29;;;;;;;7.57;5.80;;;-3.70;45.80;;;;;;5084761;28;20277;-64
2024/01/21 04:28:55;;;;;;;8.10;6.17;;;-3.90;46.20;;;;;;5082124;28;20205;-63
2024/01/21 04:31:22;;;;;;;6.17;5.53;;;-4.00;46.70;;;;;;5084749;28;20200;-61
2024/01/21 04:33:48;;;;;;;6.87;5.70;;;-4.10;46.80;;;;;;5066171;28;20230;-63
2024/01/21 04:36:15;;;;;;;7.07;6.40;;;-4.00;47.30;;;;;;5088094;28;20801;-64
2024/01/21 04:38:41;;;;;;;6.93;5.60;;;-4.20;47.10;;;;;;5080785;28;20205;-64
2024/01/21 04:41:08;;;;;;;7.23;5.60;;;-4.00;47.30;;;;;;5082446;28;20695;-62
2024/01/21 04:43:34;;;;;;;5.80;5.30;;;-3.70;46.30;;;;;;5084441;28;20285;-62
2024/01/21 04:46:01;;;;;;;6.17;5.60;;;-3.90;46.60;;;;;;5083199;28;20256;-61
2024/01/21 04:48:27;;;;;;;6.33;5.63;;;-3.90;47.30;;;;;;5077453;28;20216;-65
2024/01/21 04:50:54;;;;;;;6.33;5.17;;;-3.90;47.40;;;;;;5080617;28;20647;-64
2024/01/21 04:53:20;;;;;;;7.03;6.23;;;-4.20;47.60;;;;;;5075259;28;20208;-62
2024/01/21 04:55:47;;;;;;;7.07;6.23;;;-4.10;47.70;;;;;;5076627;28;20289;-62
2024/01/21 04:58:13;;;;;;;9.47;5.80;;;-4.20;48.20;;;;;;5080450;28;20729;-61
2024/01/21 05:00:40;;;;;;;8.90;5.80;;;-4.20;48.20;;;;;;5084226;28;20255;-66
2024/01/21 05:03:06;;;;;;;5.90;5.40;;;-4.30;48.20;;;;;;5078213;28;20637;-64
2024/01/21 05:05:33;;;;;;;6.30;5.67;;;-4.20;48.30;;;;;;5078658;28;20260;-64
2024/01/21 05:07:59;;;;;;;5.60;5.00;;;-4.10;47.90;;;;;;5082128;28;20291;-64
2024/01/21 05:10:26;;;;;;;8.70;5.73;;;-4.10;47.70;;;;;;5071635;28;20201;-63
2024/01/21 05:12:52;;;;;;;6.30;5.80;;;-4.10;47.90;;;;;;5070134;28;20660;-65
2024/01/21 05:15:19;;;;;;;5.47;4.97;;;-4.20;48.10;;;;;;5068957;28;20229;-65
2024/01/21 05:17:45;;;;;;;6.33;5.60;;;-4.10;48.10;;;;;;5068207;28;20736;-63
2024/01/21 05:20:12;;;;;;;5.80;5.30;;;-4.10;48.50;;;;;;5071739;28;20252;-62
2024/01/21 05:22:38;;;;;;;6.23;5.73;;;-4.20;48.60;;;;;;5076175;28;20232;-61
2024/01/21 05:25:05;;;;;;;6.10;5.50;;;-4.20;49.00;;;;;;5083954;28;20196;-61
2024/01/21 05:27:31;;;;;;;7.27;5.23;;;-4.10;48.80;;;;;;5079768;28;20258;-65
2024/01/21 05:29:58;;;;;;;6.67;5.90;;;-4.10;48.80;;;;;;5069717;28;20259;-61
2024/01/21 05:32:24;;;;;;;5.97;5.47;;;-4.10;48.90;;;;;;5076649;28;20241;-63
2024/01/21 05:34:51;;;;;;;6.30;5.70;;;-4.10;48.80;;;;;;5071304;28;20241;-62
2024/01/21 05:37:17;;;;;;;5.80;5.37;;;-4.20;48.90;;;;;;5081020;28;20262;-61
2024/01/21 05:39:43;;;;;;;6.63;6.03;;;-4.20;49.40;;;;;;5079549;28;20244;-65
2024/01/21 05:42:10;;;;;;;6.33;5.73;;;-4.30;49.70;;;;;;5079809;28;20715;-61
2024/01/21 05:44:36;;;;;;;6.80;5.90;;;-4.40;50.00;;;;;;5080251;28;20205;-64
2024/01/21 05:47:03;;;;;;;6.67;6.07;;;-4.30;49.60;;;;;;5073142;28;20228;-64
2024/01/21 05:49:30;;;;;;;6.27;5.20;;;-4.20;49.70;;;;;;5076238;28;20295;-62
2024/01/21 05:51:56;;;;;;;8.27;5.70;;;-4.30;49.90;;;;;;5077947;28;20601;-64
2024/01/21 05:54:23;;;;;;;4.57;4.10;;;-4.30;49.00;;;;;;5073764;28;20273;-63
2024/01/21 05:56:49;;;;;;;4.67;4.33;;;-4.30;48.70;;;;;;5076020;28;20229;-63
2024/01/21 05:59:17;;;;;;;5.30;4.60;;;-4.30;48.70;;;;;;5075576;28;20205;-62
2024/01/21 06:01:43;;;;;;;4.70;4.30;;;-4.10;48.40;;;;;;5070031;28;20709;-64
2024/01/21 06:04:10;;;;;;;4.90;4.40;;;-4.20;48.30;;;;;;5074329;28;20232;-64
2024/01/21 06:06:36;;;;;;;4.23;3.87;;;-4.30;48.60;;;;;;5081362;28;20251;-61
2024/01/21 06:09:03;;;;;;;4.13;3.90;;;-4.20;48.60;;;;;;5075744;28;20254;-63
2024/01/21 06:11:29;;;;;;;4.87;4.47;;;-4.20;48.30;;;;;;5073155;28;20201;-64
2024/01/21 06:13:56;;;;;;;4.93;4.43;;;-4.10;48.10;;;;;;5078710;28;20689;-60
2024/01/21 06:16:22;;;;;;;4.67;4.27;;;-4.20;48.30;;;;;;5083856;28;20229;-63
2024/01/21 06:18:49;;;;;;;4.50;4.10;;;-4.20;48.50;;;;;;5072881;28;20687;-63
2024/01/21 06:21:16;;;;;;;4.03;3.67;;;-4.10;48.40;;;;;;5080284;28;20225;-64
2024/01/21 06:23:43;;;;;;;4.50;4.20;;;-4.20;48.40;;;;;;5073553;28;20675;-60
2024/01/21 06:26:09;;;;;;;4.40;4.00;;;-4.20;48.70;;;;;;5084080;28;20229;-63
2024/01/21 06:28:36;;;;;;;4.40;4.00;;;-4.00;48.50;;;;;;5083440;28;20625;-65
2024/01/21 06:31:02;;;;;;;4.10;3.80;;;-4.00;48.30;;;;;;5072328;28;20228;-62
2024/01/21 06:33:29;;;;;;;4.70;4.30;;;-4.10;48.70;;;;;;5078499;28;20263;-63
2024/01/21 06:35:55;;;;;;;3.80;3.60;;;-3.80;48.30;;;;;;5080642;28;20753;-61
2024/01/21 06:38:22;;;;;;;4.07;3.77;;;-3.90;48.10;;;;;;5078351;28;20476;-62
2024/01/21 06:40:49;;;;;;;4.77;4.13;;;-3.90;48.20;;;;;;5079006;28;20259;-63
2024/01/21 06:43:16;;;;;;;4.50;4.10;;;-3.80;48.40;;;;;;5074071;28;20211;-64
2024/01/21 06:45:42;;;;;;;4.83;4.37;;;-3.90;48.70;;;;;;5074534;28;20235;-62
2024/01/21 06:48:09;;;;;;;4.43;4.13;;;-4.10;49.50;;;;;;5085029;28;20240;-64
2024/01/21 06:50:36;;;;;;;4.87;4.47;;;-3.90;49.00;;;;;;5076403;28;20208;-63
2024/01/21 06:53:02;;;;;;;4.57;4.27;;;-4.10;49.30;;;;;;5082774;28;20212;-63
2024/01/21 06:55:29;;;;;;;3.97;3.77;;;-4.10;49.80;;;;;;5082645;28;20220;-64
2024/01/21 06:57:55;;;;;;;4.60;4.30;;;-4.10;49.60;;;;;;5088094;28;20231;-62
2024/01/21 07:00:22;;;;;;;4.37;3.97;;;-4.00;49.40;;;;;;5073881;28;20229;-61
2024/01/21 07:02:48;;;;;;;4.60;4.30;;;-4.00;49.40;;;;;;5080810;28;20581;-61
2024/01/21 07:05:15;;;;;;;4.77;4.37;;;-3.80;48.90;;;;;;5080916;28;20314;-60
2024/01/21 07:07:41;;;;;;;4.57;4.20;;;-3.60;47.80;;;;;;5065909;28;20642;-65
2024/01/21 07:10:08;;;;;;;4.90;4.43;;;-3.60;47.60;;;;;;5073798;28;20695;-62
2024/01/21 07:12:34;;;;;;;7.07;4.30;;;-3.60;47.60;;;;;;5082088;28;20204;-61
2024/01/21 07:15:01;;;;;;;5.40;4.70;;;-3.60;47.60;;;;;;5083867;28;20643;-60
2024/01/21 07:17:28;;;;;;;5.03;4.40;;;-3.60;47.60;;;;;;5075288;28;20224;-63
2024/01/21 07:19:54;;;;;;;4.53;4.20;;;-3.50;47.70;;;;;;5077284;28;20209;-64
2024/01/21 07:22:21;;;;;;;4.83;4.33;;;-3.60;48.00;;;;;;5086363;28;20228;-61
2024/01/21 07:24:47;;;;;;;4.43;4.03;;;-3.70;47.90;;;;;;5086304;28;20875;-64
2024/01/21 07:27:14;;;;;;;4.30;3.83;;;-3.60;47.60;;;;;;5077807;28;20286;-59
2024/01/21 07:29:40;;;;;;;5.77;4.07;;;-3.60;47.60;;;;;;5072375;28;20640;-61
2024/01/21 07:32:08;;;;;;;5.33;4.57;;;-3.50;47.30;;;;;;5079240;28;20283;-62
2024/01/21 07:34:34;;;;;;;6.03;3.93;;;-3.50;47.20;;;;;;5067556;28;20245;-65
2024/01/21 07:37:01;;;;;;;3.93;3.63;;;-3.50;47.30;;;;;;5067688;28;20862;-63
2024/01/21 07:39:27;;;;;;;4.40;4.00;;;-3.50;47.10;;;;;;5077863;28;20713;-64
2024/01/21 07:41:54;;;;;;;8.57;4.53;;;-3.50;46.70;;;;;;5068276;28;20220;-62
2024/01/21 07:44:20;;;;;;;5.53;4.73;;;-3.40;46.70;;;;;;5063341;28;20652;-64
2024/01/21 07:46:47;;;;;;;4.70;3.70;;;-3.40;46.30;;;;;;5079498;28;20269;-61
2024/01/21 07:49:13;;;;;;;4.87;4.47;;;-3.40;46.10;;;;;;5067561;28;20602;-62
2024/01/21 07:51:40;;;;;;;4.60;3.87;;;-3.30;46.50;;;;;;5079817;28;20788;-64
2024/01/21 07:54:06;;;;;;;5.87;4.10;;;-3.30;45.60;;;;;;5072486;28;20236;-62
2024/01/21 07:56:33;;;;;;;4.67;3.90;;;-3.30;46.00;;;;;;5067110;28;20231;-63
2024/01/21 07:58:59;;;;;;;4.17;3.87;;;-3.30;46.00;;;;;;5069718;28;20237;-60
2024/01/21 08:01:26;;;;;;;4.13;3.67;;;-3.30;45.20;;;;;;5075944;28;20324;-64
2024/01/21 08:03:53;;;;;;;4.70;4.30;;;-3.30;45.60;;;;;;5064603;28;20201;-62
2024/01/21 08:06:20;;;;;;;4.33;3.70;;;-3.20;46.00;;;;;;5075747;28;20270;-65
2024/01/21 08:08:46;;;;;;;5.20;4.00;;;-3.20;46.70;;;;;;5076066;28;20209;-64
2024/01/21 08:11:13;;;;;;;4.00;3.67;;;-3.00;45.40;;;;;;5067728;28;20246;-62
2024/01/21 08:13:39;;;;;;;5.40;3.50;;;-2.80;44.70;;;;;;5053761;28;20201;-65
2024/01/21 08:16:06;;;;;;;3.67;3.37;;;-2.80;43.90;;;;;;5059427;28;20232;-62
2024/01/21 08:18:32;;;;;;;4.17;3.80;;;-2.70;43.60;;;;;;5084867;28;20666;-64
2024/01/21 08:20:59;;;;;;;3.50;3.30;;;-2.60;43.00;;;;;;5075900;28;20208;-67
2024/01/21 08:23:25;;;;;;;4.10;3.70;;;-2.60;43.50;;;;;;5074368;28;20278;-65
2024/01/21 08:25:52;;;;;;;5.70;4.00;;;-2.50;42.60;;;;;;5066615;28;20328;-62
2024/01/21 08:28:18;;;;;;;6.40;3.90;;;-2.30;42.60;;;;;;5053785;28;20244;-63
2024/01/21 08:30:45;;;;;;;6.83;4.27;;;-2.20;42.50;;;;;;5056757;28;20411;-63
2024/01/21 08:33:11;;;;;;;4.37;4.03;;;-2.20;41.90;;;;;;5049001;28;20386;-64
2024/01/21 08:35:38;;;;;;;3.90;3.60;;;-2.10;41.50;;;;;;5046623;28;20723;-67
2024/01/21 08:38:04;;;;;;;4.10;3.70;;;-1.90;41.30;;;;;;5044164;28;20284;-64
2024/01/21 08:40:31;;;;;;;4.23;3.57;;;-1.70;41.20;;;;;;5044435;28;20633;-64
2024/01/21 08:42:57;;;;;;;4.20;3.90;;;-1.40;41.80;;;;;;5062918;28;20221;-62
2024/01/21 08:45:24;;;;;;;4.73;3.33;;;-1.10;40.80;;;;;;5056409;28;20595;-65
2024/01/21 08:47:50;;;;;;;3.57;3.33;;;-0.90;38.90;;;;;;5059468;28;20220;-64
2024/01/21 08:50:17;;;;;;;3.77;3.50;;;-0.50;39.10;;;;;;5049053;28;20264;-62
2024/01/21 08:52:43;;;;;;;4.07;3.77;;;-0.30;38.50;;;;;;5046892;28;20950;-62
2024/01/21 08:55:10;;;;;;;5.83;4.10;;;0.00;37.50;;;;;;5026950;28;20314;-65
2024/01/21 08:57:36;;;;;;;4.70;3.50;;;0.40;36.50;;;;;;5055697;28;20689;-61
2024/01/21 09:00:04;;;;;;;5.90;3.30;;;0.70;35.90;;;;;;5054953;28;20213;-61
2024/01/21 09:02:31;;;;;;;3.77;3.30;;;0.90;35.50;;;;;;5059316;28;20247;-61
2024/01/21 09:04:57;;;;;;;3.87;3.20;;;1.00;34.20;;;;;;5059220;28;20244;-60
2024/01/21 09:07:24;;;;;;;5.17;3.57;;;1.20;35.60;;;;;;5054440;28;20280;-61
2024/01/21 09:09:51;;;;;;;9.80;3.70;;;1.40;35.00;;;;;;5061336;28;20618;-60
2024/01/21 09:12:17;;;;;;;4.53;3.30;;;1.60;34.40;;;;;;5058066;28;20258;-63
2024/01/21 09:14:44;;;;;;;7.83;3.80;;;1.80;34.10;;;;;;5043806;28;20234;-61
2024/01/21 09:17:10;;;;;;;4.17;3.13;;;2.00;32.90;;;;;;5059758;28;20292;-62
2024/01/21 09:19:37;;;;;;;5.37;3.30;;;1.90;32.30;;;;;;5051398;28;20252;-61
2024/01/21 09:22:03;;;;;;;3.67;3.37;;;2.00;32.70;;;;;;5059046;28;20217;-63
2024/01/21 09:24:30;;;;;;;5.10;3.67;;;2.20;32.60;;;;;;5056480;28;20201;-63
2024/01/21 09:26:56;;;;;;;3.73;3.37;;;2.30;31.90;;;;;;5026837;28;20303;-63
2024/01/21 09:29:23;;;;;;;7.97;3.43;;;2.60;32.80;;;;;;5034636;28;20324;-62
2024/01/21 09:31:49;;;;;;;4.07;3.53;;;2.80;32.90;;;;;;5033478;28;20958;-64
2024/01/21 09:34:16;;;;;;;8.50;3.40;;;3.00;30.90;;;;;;5048191;28;20201;-65
2024/01/21 09:36:43;;;;;;;4.20;3.30;;;3.20;31.60;;;;;;5042499;28;20233;-64
2024/01/21 09:39:09;;;;;;;4.47;3.63;;;3.30;31.10;;;;;;5056459;28;20213;-63
2024/01/21 09:41:36;;;;;;;3.43;3.13;;;3.20;30.60;;;;;;5037002;28;20303;-64
2024/01/21 09:44:03;;;;;;;3.77;3.43;;;3.30;30.70;;;;;;5044064;28;20230;-66
2024/01/21 09:46:30;;;;;;;4.73;3.70;;;3.10;30.50;;;;;;5044802;28;20271;-64
2024/01/21 09:48:57;;;;;;;4.10;3.63;;;3.10;30.50;;;;;;5048566;28;20626;-63
2024/01/21 09:51:24;;;;;;;4.00;3.50;;;3.30;31.10;;;;;;5036960;28;20234;-63
2024/01/21 09:53:50;;;;;;;3.57;3.30;;;3.40;30.70;;;;;;5055589;28;20244;-60
2024/01/21 09:56:17;;;;;;;6.37;3.53;;;3.40;30.70;;;;;;5050796;28;20708;-59
2024/01/21 09:58:43;;;;;;;3.87;3.17;;;3.30;29.60;;;;;;5050925;28;20292;-65
2024/01/21 10:01:10;;;;;;;4.00;3.00;;;3.30;29.40;;;;;;5037347;28;20684;-63
2024/01/21 10:03:37;;;;;;;3.93;2.80;;;3.40;29.50;;;;;;5062579;28;20687;-61
2024/01/21 10:06:04;;;;;;;3.87;3.23;;;3.50;29.70;;;;;;5068482;28;20307;-62
2024/01/21 10:08:31;;;;;;;4.27;2.70;;;3.80;28.50;;;;;;5079284;28;20667;-63
2024/01/21 10:10:57;;;;;;;3.40;2.73;;;3.70;28.80;;;;;;5076032;28;20675;-63
2024/01/21 10:13:24;;;;;;;3.37;2.77;;;4.00;28.20;;;;;;5067758;28;20206;-63
2024/01/21 10:15:50;;;;;;;6.63;2.90;;;3.70;28.10;;;;;;5073038;28;20228;-64
2024/01/21 10:18:17;;;;;;;3.97;3.57;;;3.70;28.80;;;;;;5076101;28;20228;-61
2024/01/21 10:20:43;;;;;;;4.50;3.13;;;4.10;28.40;;;;;;5067336;28;20239;-62
2024/01/21 10:23:10;;;;;;;6.07;3.43;;;4.30;28.80;;;;;;5062546;28;20299;-60
2024/01/21 10:25:38;;;;;;;6.00;3.10;;;4.50;28.80;;;;;;5069766;28;20311;-63
2024/01/21 10:28:05;;;;;;;10.53;3.60;;;4.60;28.20;;;;;;5061298;28;20621;-63
2024/01/21 10:30:32;;;;;;;4.23;3.30;;;4.70;28.90;;;;;;5065182;28;20214;-63
2024/01/21 10:32:58;;;;;;;4.57;3.20;;;5.00;28.30;;;;;;5063731;28;20228;-63
2024/01/21 10:35:24;;;;;;;5.33;3.27;;;5.30;28.30;;;;;;5062547;28;20301;-60
2024/01/21 10:37:51;;;;;;;4.73;2.90;;;5.60;28.40;;;;;;5061978;28;20531;-64
2024/01/21 10:40:18;;;;;;;5.57;2.77;;;5.60;27.30;;;;;;5070051;28;20261;-63
2024/01/21 10:42:44;;;;;;;4.10;3.07;;;5.70;27.20;;;;;;5072975;28;20347;-66
2024/01/21 10:45:11;;;;;;;2.47;2.00;;;5.90;26.70;;;;;;5070163;28;20251;-63
2024/01/21 10:47:37;;;;;;;3.87;2.40;;;5.90;26.20;;;;;;5079313;28;20222;-63
2024/01/21 10:50:04;;;;;;;4.77;2.40;;;5.80;26.50;;;;;;5065183;28;20322;-64
2024/01/21 10:52:30;;;;;;;4.60;2.23;;;5.90;26.60;;;;;;5082937;28;20698;-63
2024/01/21 10:54:57;;;;;;;3.90;2.07;;;5.70;26.20;;;;;;5075221;28;20213;-61
2024/01/21 10:57:23;;;;;;;2.50;1.97;;;6.00;26.20;;;;;;5068563;28;20653;-63
2024/01/21 10:59:50;;;;;;;13.10;2.53;;;6.00;26.00;;;;;;5058919;28;20706;-65
2024/01/21 11:02:17;;;;;;;2.67;2.10;;;5.80;26.10;;;;;;5073023;28;20244;-63
2024/01/21 11:04:43;;;;;;;6.40;2.70;;;5.90;26.00;;;;;;5066188;28;20629;-63
2024/01/21 11:07:10;;;;;;;9.27;2.57;;;5.90;26.10;;;;;;5069388;28;20705;-63
2024/01/21 11:09:37;;;;;;;10.53;3.17;;;5.90;26.40;;;;;;5069111;28;20296;-67
2024/01/21 11:12:03;;;;;;;18.93;4.00;;;5.80;26.80;;;;;;5071895;28;20299;-62
2024/01/21 11:14:30;;;;;;;13.83;3.70;;;5.80;27.00;;;;;;5073001;28;20690;-62
2024/01/21 11:16:56;;;;;;;14.13;3.40;;;5.60;27.60;;;;;;5066964;28;20696;-61
2024/01/21 11:19:24;;;;;;;7.13;2.87;;;5.60;27.20;;;;;;5068554;28;20234;-65
2024/01/21 11:21:50;;;;;;;4.90;2.53;;;5.50;27.40;;;;;;5065687;28;20224;-64
2024/01/21 11:24:17;;;;;;;8.83;3.00;;;5.40;27.00;;;;;;5080008;28;20449;-63
2024/01/21 11:26:43;;;;;;;14.00;3.33;;;5.40;27.20;;;;;;5068131;28;20231;-63
2024/01/21 11:29:10;;;;;;;9.83;3.03;;;5.30;27.60;;;;;;5070176;28;20570;-64
2024/01/21 11:31:36;;;;;;;13.67;3.70;;;5.20;27.70;;;;;;5057087;28;20216;-63
2024/01/21 11:34:03;;;;;;;10.50;3.07;;;5.20;28.40;;;;;;5069448;28;20216;-62
2024/01/21 11:36:29;;;;;;;13.37;3.20;;;5.00;28.20;;;;;;5070046;28;20257;-62
2024/01/21 11:38:56;;;;;;;9.83;3.20;;;5.00;28.60;;;;;;5068845;28;20208;-64
2024/01/21 11:41:22;;;;;;;5.80;2.87;;;5.10;28.10;;;;;;5072884;28;20227;-65
2024/01/21 11:43:48;;;;;;;4.73;2.60;;;5.10;28.10;;;;;;5067918;28;20250;-64
2024/01/21 11:46:15;;;;;;;5.53;2.80;;;5.20;28.10;;;;;;5074701;28;20714;-64
2024/01/21 11:48:41;;;;;;;7.07;3.00;;;5.10;27.80;;;;;;5066474;28;20257;-63
2024/01/21 11:51:08;;;;;;;11.07;2.90;;;5.20;27.80;;;;;;5062942;28;21025;-68
2024/01/21 11:53:34;;;;;;;6.30;2.50;;;5.10;28.10;;;;;;5069320;28;20264;-65
2024/01/21 11:56:01;;;;;;;52.47;6.53;;;5.10;28.10;;;;;;5071468;28;20230;-69
2024/01/21 11:58:27;;;;;;;15.20;4.53;;;5.00;28.80;;;;;;5072581;28;20257;-64
2024/01/21 12:00:54;;;;;;;13.03;3.80;;;5.00;28.90;;;;;;5064978;28;20221;-71
2024/01/21 12:03:20;;;;;;;32.20;6.00;;;5.00;29.70;;;;;;5069924;28;20674;-63
2024/01/21 12:05:47;;;;;;;13.30;3.90;;;5.00;30.10;;;;;;5072243;28;20254;-67
2024/01/21 12:08:13;;;;;;;18.23;4.37;;;5.00;29.40;;;;;;5061261;28;20225;-64
2024/01/21 12:10:40;;;;;;;24.23;4.63;;;5.00;29.80;;;;;;5071297;28;20250;-64
2024/01/21 12:13:07;;;;;;;16.60;5.50;;;5.10;30.30;;;;;;5077316;28;20206;-60
2024/01/21 12:15:35;;;;;;;7.43;4.37;;;5.20;31.00;;;;;;5073267;28;20229;-63
2024/01/21 12:18:01;;;;;;;20.00;5.13;;;5.20;31.60;;;;;;5076108;28;20294;-64
2024/01/21 12:20:28;;;;;;;10.60;4.70;;;5.40;31.50;;;;;;5078195;28;20241;-63
2024/01/21 12:22:54;;;;;;;15.23;5.10;;;5.40;31.50;;;;;;5066629;28;20222;-61
2024/01/21 12:25:21;;;;;;;16.23;4.60;;;5.50;31.50;;;;;;5070151;28;20254;-63
2024/01/21 12:27:47;;;;;;;14.57;4.97;;;5.40;31.90;;;;;;5074102;28;20206;-63
2024/01/21 12:30:14;;;;;;;17.30;5.10;;;5.40;32.40;;;;;;5055086;28;20211;-63
2024/01/21 12:32:41;;;;;;;16.63;5.70;;;5.50;32.50;;;;;;5072329;28;20298;-63
2024/01/21 12:35:07;;;;;;;18.00;5.60;;;5.50;32.50;;;;;;5078364;28;20246;-63
2024/01/21 12:37:34;;;;;;;14.97;5.83;;;5.40;32.80;;;;;;5061752;28;20218;-61
2024/01/21 12:40:00;;;;;;;9.60;4.63;;;5.50;32.50;;;;;;5075273;28;20453;-63
2024/01/21 12:42:27;;;;;;;7.37;4.73;;;5.50;32.50;;;;;;5085052;28;20217;-62